createdAt,value
2023-05-25T00:01:54.515Z,74.50
2023-05-25T00:04:22.151Z,74.60
2023-05-25T00:06:49.154Z,74.80
2023-05-25T00:09:17.236Z,74.90
2023-05-25T00:11:44.461Z,74.90
2023-05-25T00:14:11.844Z,74.90
2023-05-25T00:16:40.834Z,74.80
2023-05-25T00:19:10.702Z,74.90
2023-05-25T00:21:41.509Z,74.80
2023-05-25T00:24:08.728Z,75.00
2023-05-25T00:26:37.814Z,75.00
2023-05-25T00:29:04.919Z,74.80
2023-05-25T00:31:33.569Z,75.00
2023-05-25T00:34:02.126Z,74.90
2023-05-25T00:36:29.363Z,74.80
2023-05-25T00:38:57.779Z,74.90
2023-05-25T00:41:26.310Z,74.80
2023-05-25T00:43:53.199Z,74.90
2023-05-25T00:46:20.669Z,74.80
2023-05-25T00:48:47.585Z,74.80
2023-05-25T00:51:14.673Z,75.00
2023-05-25T00:53:42.010Z,74.90
2023-05-25T00:56:32.750Z,75.00
2023-05-25T00:59:06.165Z,75.00
2023-05-25T01:01:39.953Z,75.10
2023-05-25T01:04:09.681Z,75.00
2023-05-25T01:06:37.000Z,74.90
2023-05-25T01:09:05.085Z,74.70
2023-05-25T01:11:37.806Z,74.80
2023-05-25T01:14:04.876Z,74.90
2023-05-25T01:16:32.220Z,74.90
2023-05-25T01:19:00.907Z,75.80
2023-05-25T01:21:34.673Z,75.00
2023-05-25T01:24:35.088Z,74.70
2023-05-25T01:27:28.252Z,74.60
2023-05-25T01:29:55.420Z,74.70
2023-05-25T01:32:22.751Z,74.90
2023-05-25T01:34:49.999Z,74.90
2023-05-25T01:37:19.647Z,74.80
2023-05-25T01:39:47.150Z,74.90
2023-05-25T01:42:14.076Z,75.00
2023-05-25T01:44:41.864Z,74.90
2023-05-25T01:47:28.644Z,74.90
2023-05-25T01:50:19.800Z,75.00
2023-05-25T01:52:53.911Z,75.00
2023-05-25T01:55:21.595Z,75.00
2023-05-25T01:57:50.681Z,75.00
2023-05-25T02:00:18.206Z,75.00
2023-05-25T02:02:46.087Z,75.10
2023-05-25T02:05:13.024Z,75.20
2023-05-25T02:07:40.902Z,75.10
2023-05-25T02:10:11.503Z,75.10
2023-05-25T02:12:39.063Z,75.20
2023-05-25T02:15:06.395Z,75.20
2023-05-25T02:17:34.107Z,75.20
2023-05-25T02:20:01.031Z,75.20
2023-05-25T02:22:28.216Z,75.20
2023-05-25T02:24:56.339Z,75.20
2023-05-25T02:27:23.188Z,75.20
2023-05-25T02:29:50.820Z,75.10
2023-05-25T02:32:17.747Z,75.30
2023-05-25T02:34:44.715Z,75.20
2023-05-25T02:37:12.848Z,75.30
2023-05-25T02:39:39.979Z,75.20
2023-05-25T02:42:07.489Z,75.30
2023-05-25T02:44:35.397Z,75.40
2023-05-25T02:47:02.597Z,75.30
2023-05-25T02:49:35.171Z,75.30
2023-05-25T02:52:02.089Z,75.30
2023-05-25T02:54:30.581Z,75.40
2023-05-25T02:56:57.477Z,75.40
2023-05-25T02:59:25.480Z,75.50
2023-05-25T03:01:53.926Z,76.40
2023-05-25T03:04:21.021Z,75.40
2023-05-25T03:06:48.784Z,75.60
2023-05-25T03:09:16.055Z,75.70
2023-05-25T03:11:43.505Z,75.60
2023-05-25T03:14:11.342Z,75.60
2023-05-25T03:16:39.068Z,75.70
2023-05-25T03:19:06.450Z,75.70
2023-05-25T03:21:33.418Z,75.70
2023-05-25T03:24:00.546Z,75.70
2023-05-25T03:26:29.004Z,75.80
2023-05-25T03:28:56.995Z,75.80
2023-05-25T03:31:23.882Z,75.80
2023-05-25T03:33:52.279Z,76.00
2023-05-25T03:36:22.237Z,76.10
2023-05-25T03:38:50.736Z,76.10
2023-05-25T03:41:18.000Z,76.00
2023-05-25T03:43:48.915Z,76.20
2023-05-25T03:46:16.665Z,76.20
2023-05-25T03:48:44.124Z,76.20
2023-05-25T03:51:11.067Z,76.20
2023-05-25T03:53:38.587Z,76.20
2023-05-25T03:56:05.980Z,76.20
2023-05-25T03:58:34.236Z,76.40
2023-05-25T04:01:02.427Z,76.30
2023-05-25T04:03:34.629Z,76.50
2023-05-25T04:06:03.033Z,76.50
2023-05-25T04:08:30.608Z,76.60
2023-05-25T04:10:58.470Z,76.50
2023-05-25T04:13:25.538Z,76.50
2023-05-25T04:15:53.585Z,76.50
2023-05-25T04:18:21.610Z,76.50
2023-05-25T04:20:55.592Z,76.50
2023-05-25T04:23:22.545Z,76.60
2023-05-25T04:25:51.334Z,76.50
2023-05-25T04:28:19.097Z,76.60
2023-05-25T04:30:46.016Z,76.60
2023-05-25T04:33:13.853Z,76.50
2023-05-25T04:35:43.571Z,76.50
2023-05-25T04:38:17.724Z,76.50
2023-05-25T04:40:46.530Z,76.70
2023-05-25T04:43:13.817Z,76.60
2023-05-25T04:45:40.944Z,76.70
2023-05-25T04:48:09.700Z,76.70
2023-05-25T04:50:38.429Z,76.60
2023-05-25T04:53:05.502Z,76.80
2023-05-25T04:55:33.469Z,76.90
2023-05-25T04:58:01.557Z,76.90
2023-05-25T05:00:28.768Z,76.90
2023-05-25T05:02:59.047Z,76.90
2023-05-25T05:05:27.656Z,77.20
2023-05-25T05:07:54.679Z,77.10
2023-05-25T05:10:21.658Z,77.10
2023-05-25T05:12:51.240Z,77.10
2023-05-25T05:15:18.639Z,77.10
2023-05-25T05:17:45.686Z,77.10
2023-05-25T05:20:13.126Z,77.20
2023-05-25T05:22:40.016Z,77.40
2023-05-25T05:25:07.940Z,77.50
2023-05-25T05:27:35.084Z,77.70
2023-05-25T05:30:02.674Z,77.70
2023-05-25T05:32:29.625Z,77.70
2023-05-25T05:34:57.487Z,77.60
2023-05-25T05:37:24.406Z,77.70
2023-05-25T05:39:53.624Z,77.90
2023-05-25T05:42:20.654Z,78.00
2023-05-25T05:44:48.172Z,78.00
2023-05-25T05:47:16.862Z,77.90
2023-05-25T05:49:44.877Z,77.80
2023-05-25T05:52:13.961Z,78.10
2023-05-25T05:54:42.176Z,78.10
2023-05-25T05:57:09.007Z,78.10
2023-05-25T05:59:36.285Z,78.20
2023-05-25T06:02:03.534Z,78.30
2023-05-25T06:04:30.536Z,78.20
2023-05-25T06:06:58.614Z,78.30
2023-05-25T06:09:26.635Z,78.10
2023-05-25T06:11:54.469Z,78.00
2023-05-25T06:14:21.406Z,78.20
2023-05-25T06:16:48.431Z,77.80
2023-05-25T06:19:16.301Z,77.90
2023-05-25T06:21:43.236Z,77.90
2023-05-25T06:24:11.258Z,77.90
2023-05-25T06:26:38.616Z,78.00
2023-05-25T06:29:06.483Z,78.00
2023-05-25T06:31:37.626Z,77.70
2023-05-25T06:34:05.783Z,77.60
2023-05-25T06:36:32.994Z,77.50
2023-05-25T06:38:59.985Z,77.30
2023-05-25T06:41:27.919Z,76.90
2023-05-25T06:43:56.283Z,76.80
2023-05-25T06:46:23.339Z,76.60
2023-05-25T06:48:51.824Z,76.80
2023-05-25T06:51:19.011Z,76.60
2023-05-25T06:53:47.227Z,76.60
2023-05-25T06:56:14.106Z,76.60
2023-05-25T06:58:42.946Z,76.60
2023-05-25T07:01:09.980Z,76.60
2023-05-25T07:03:39.299Z,76.50
2023-05-25T07:06:06.818Z,76.80
2023-05-25T07:08:36.681Z,76.90
2023-05-25T07:11:03.641Z,77.10
2023-05-25T07:13:30.954Z,76.80
2023-05-25T07:15:59.288Z,76.50
2023-05-25T07:18:37.669Z,76.50
2023-05-25T07:21:07.054Z,76.60
2023-05-25T07:23:36.951Z,76.50
2023-05-25T07:26:05.870Z,77.00
2023-05-25T07:28:33.508Z,76.90
2023-05-25T07:31:02.149Z,76.90
2023-05-25T07:41:18.707Z,77.00
2023-05-25T07:43:46.068Z,76.10
2023-05-25T07:46:12.898Z,76.20
2023-05-25T07:48:39.742Z,76.10
2023-05-25T07:51:07.095Z,76.30
2023-05-25T07:53:33.959Z,75.00
2023-05-25T07:56:01.000Z,75.20
2023-05-25T07:58:27.809Z,74.10
2023-05-25T08:00:54.621Z,73.20
2023-05-25T08:03:31.778Z,72.50
2023-05-25T08:06:02.858Z,72.50
2023-05-25T08:08:29.662Z,72.90
2023-05-25T08:10:56.617Z,72.60
2023-05-25T08:13:23.640Z,71.60
2023-05-25T08:15:50.932Z,71.40
2023-05-25T08:18:19.344Z,70.50
2023-05-25T08:20:46.632Z,70.70
2023-05-25T08:23:13.577Z,70.70
2023-05-25T08:25:41.159Z,70.70
2023-05-25T08:28:07.933Z,69.60
2023-05-25T08:30:34.861Z,69.40
2023-05-25T08:33:01.787Z,68.70
2023-05-25T08:35:28.680Z,68.70
2023-05-25T08:37:55.590Z,69.40
2023-05-25T08:40:23.276Z,68.90
2023-05-25T08:42:50.076Z,68.30
2023-05-25T08:45:30.550Z,68.10
2023-05-25T08:48:05.049Z,68.20
2023-05-25T08:50:31.978Z,68.20
2023-05-25T08:52:58.777Z,68.30
2023-05-25T08:55:27.070Z,67.80
2023-05-25T08:58:20.171Z,67.20
2023-05-25T09:00:58.596Z,67.70
2023-05-25T09:03:25.615Z,67.10
2023-05-25T09:05:52.502Z,66.80
2023-05-25T09:08:19.290Z,66.00
2023-05-25T09:10:46.151Z,66.20
2023-05-25T09:13:21.780Z,65.60
2023-05-25T09:15:49.875Z,65.70
2023-05-25T09:18:16.854Z,65.80
2023-05-25T09:20:46.235Z,65.20
2023-05-25T09:23:14.644Z,64.20
2023-05-25T09:25:41.667Z,64.10
2023-05-25T09:28:25.321Z,63.90
2023-05-25T09:30:53.572Z,63.30
2023-05-25T09:33:20.652Z,63.00
2023-05-25T09:35:47.935Z,63.00
2023-05-25T09:38:16.341Z,63.30
2023-05-25T09:40:43.815Z,62.40
2023-05-25T09:43:15.661Z,62.70
2023-05-25T09:45:46.700Z,62.20
2023-05-25T09:48:13.566Z,60.60
2023-05-25T09:50:43.321Z,60.20
2023-05-25T09:53:10.360Z,60.40
2023-05-25T09:55:52.344Z,59.80
2023-05-25T09:58:24.024Z,59.60
2023-05-25T10:00:56.211Z,58.90
2023-05-25T10:03:23.264Z,58.70
2023-05-25T10:05:50.303Z,58.50
2023-05-25T10:08:18.232Z,58.30
2023-05-25T10:10:45.388Z,58.00
2023-05-25T10:13:12.446Z,58.50
2023-05-25T10:15:40.592Z,58.40
2023-05-25T10:18:07.677Z,58.30
2023-05-25T10:20:35.320Z,57.60
2023-05-25T10:23:09.945Z,58.10
2023-05-25T10:25:44.257Z,58.50
2023-05-25T10:28:22.201Z,57.70
2023-05-25T10:30:50.111Z,57.30
2023-05-25T10:33:17.177Z,57.30
2023-05-25T10:36:02.449Z,57.50
2023-05-25T10:38:33.068Z,57.00
2023-05-25T10:41:00.638Z,56.80
2023-05-25T10:43:27.476Z,56.90
2023-05-25T10:45:55.511Z,55.90
2023-05-25T10:48:23.131Z,56.20
2023-05-25T10:50:50.901Z,55.10
2023-05-25T10:53:20.912Z,55.10
2023-05-25T10:55:53.693Z,55.00
2023-05-25T10:58:23.727Z,54.70
2023-05-25T11:01:00.666Z,54.60
2023-05-25T11:04:05.225Z,55.00
2023-05-25T11:06:40.263Z,55.50
2023-05-25T11:09:07.300Z,54.70
2023-05-25T11:11:43.396Z,53.90
2023-05-25T11:14:31.514Z,54.60
2023-05-25T11:17:15.086Z,54.00
2023-05-25T11:19:51.018Z,54.20
2023-05-25T11:22:22.245Z,54.80
2023-05-25T11:24:49.728Z,55.00
2023-05-25T11:27:21.156Z,55.10
2023-05-25T11:29:51.031Z,55.40
2023-05-25T11:32:21.424Z,56.00
2023-05-25T11:34:48.426Z,56.10
2023-05-25T11:37:21.492Z,56.40
2023-05-25T11:39:52.054Z,56.30
2023-05-25T11:42:25.214Z,54.80
2023-05-25T11:44:52.201Z,54.60
2023-05-25T11:47:23.164Z,54.50
2023-05-25T11:49:50.693Z,55.10
2023-05-25T11:52:18.257Z,54.10
2023-05-25T11:54:45.439Z,53.60
2023-05-25T11:57:24.701Z,53.50
2023-05-25T11:59:53.343Z,53.80
2023-05-25T12:02:20.804Z,52.80
2023-05-25T12:04:58.944Z,52.10
2023-05-25T12:07:26.384Z,51.70
2023-05-25T12:10:25.124Z,50.80
2023-05-25T12:12:52.252Z,51.00
2023-05-25T12:15:23.407Z,51.20
2023-05-25T12:17:50.722Z,51.60
2023-05-25T12:20:20.225Z,51.80
2023-05-25T12:22:47.375Z,52.30
2023-05-25T12:25:16.054Z,52.50
2023-05-25T12:27:43.829Z,51.70
2023-05-25T12:30:12.333Z,50.80
2023-05-25T12:32:59.603Z,51.30
2023-05-25T12:35:29.159Z,51.80
2023-05-25T12:38:15.630Z,51.60
2023-05-25T12:40:42.635Z,52.00
2023-05-25T12:43:11.391Z,52.10
2023-05-25T12:45:42.523Z,52.20
2023-05-25T12:48:09.383Z,51.40
2023-05-25T12:50:37.200Z,51.60
2023-05-25T12:53:07.222Z,51.70
2023-05-25T12:55:35.728Z,51.20
2023-05-25T12:58:06.876Z,51.60
2023-05-25T13:00:38.072Z,52.00
2023-05-25T13:03:07.594Z,51.80
2023-05-25T13:05:39.404Z,51.60
2023-05-25T13:08:06.438Z,51.10
2023-05-25T13:10:33.538Z,51.40
2023-05-25T13:13:00.778Z,51.50
2023-05-25T13:15:27.968Z,51.10
2023-05-25T13:17:55.058Z,50.70
2023-05-25T13:20:23.693Z,50.70
2023-05-25T13:22:51.653Z,50.40
2023-05-25T13:25:18.573Z,50.10
2023-05-25T13:27:47.079Z,49.90
2023-05-25T13:30:14.086Z,50.00
2023-05-25T13:32:42.018Z,49.90
2023-05-25T13:35:12.415Z,49.00
2023-05-25T13:37:39.213Z,49.00
2023-05-25T13:40:06.750Z,49.50
2023-05-25T13:42:33.561Z,49.00
2023-05-25T13:45:00.388Z,48.20
2023-05-25T13:47:28.330Z,48.70
2023-05-25T13:49:55.515Z,48.90
2023-05-25T13:52:24.563Z,49.20
2023-05-25T13:54:51.409Z,48.80
2023-05-25T13:57:18.243Z,49.20
2023-05-25T13:59:45.069Z,48.40
2023-05-25T14:02:11.991Z,48.30
2023-05-25T14:04:39.156Z,47.30
2023-05-25T14:07:06.096Z,46.80
2023-05-25T14:09:33.089Z,45.50
2023-05-25T14:11:59.964Z,45.70
2023-05-25T14:14:32.057Z,45.60
2023-05-25T14:17:01.728Z,45.80
2023-05-25T14:19:28.872Z,46.30
2023-05-25T14:22:11.973Z,46.50
2023-05-25T14:24:40.854Z,46.80
2023-05-25T14:27:07.662Z,45.90
2023-05-25T14:29:34.753Z,45.80
2023-05-25T14:32:01.903Z,45.60
2023-05-25T14:34:29.520Z,45.80
2023-05-25T14:36:56.472Z,46.20
2023-05-25T14:39:23.338Z,46.60
2023-05-25T14:41:50.265Z,46.70
2023-05-25T14:44:17.113Z,47.00
2023-05-25T14:46:44.015Z,47.00
2023-05-25T14:49:10.906Z,47.20
2023-05-25T14:51:38.192Z,47.10
2023-05-25T14:54:06.509Z,47.30
2023-05-25T14:56:33.494Z,47.30
2023-05-25T14:59:00.428Z,47.40
2023-05-25T15:01:29.415Z,47.30
2023-05-25T15:03:56.742Z,47.40
2023-05-25T15:06:23.765Z,47.50
2023-05-25T15:08:50.892Z,47.10
2023-05-25T15:11:18.206Z,47.10
2023-05-25T15:13:45.150Z,47.10
2023-05-25T15:16:12.785Z,47.00
2023-05-25T15:18:39.686Z,46.50
2023-05-25T15:21:06.657Z,46.60
2023-05-25T15:23:33.575Z,46.50
2023-05-25T15:26:04.276Z,46.60
2023-05-25T15:28:31.553Z,46.30
2023-05-25T15:31:00.697Z,46.50
2023-05-25T15:33:43.585Z,46.80
2023-05-25T15:36:15.192Z,46.70
2023-05-25T15:38:43.463Z,47.20
2023-05-25T15:41:11.480Z,47.40
2023-05-25T15:43:38.336Z,47.50
2023-05-25T15:46:05.392Z,47.10
2023-05-25T15:48:32.189Z,47.60
2023-05-25T15:50:58.934Z,47.50
2023-05-25T15:53:25.927Z,47.30
2023-05-25T15:55:52.706Z,47.70
2023-05-25T15:58:19.537Z,47.80
2023-05-25T16:00:46.273Z,47.30
2023-05-25T16:03:13.084Z,47.40
2023-05-25T16:05:39.900Z,47.60
2023-05-25T16:08:06.690Z,47.80
2023-05-25T16:10:33.697Z,48.10
2023-05-25T16:13:00.534Z,47.80
2023-05-25T16:15:27.438Z,48.20
2023-05-25T16:17:54.187Z,48.10
2023-05-25T16:20:21.053Z,48.20
2023-05-25T16:22:47.905Z,48.30
2023-05-25T16:25:14.714Z,48.40
2023-05-25T16:27:41.694Z,48.30
2023-05-25T16:30:11.060Z,48.60
2023-05-25T16:32:39.315Z,48.60
2023-05-25T16:35:06.579Z,48.70
2023-05-25T16:37:33.439Z,48.80
2023-05-25T16:40:00.505Z,48.80
2023-05-25T16:42:27.883Z,48.90
2023-05-25T16:44:54.669Z,48.90
2023-05-25T16:47:21.657Z,49.10
2023-05-25T16:49:51.452Z,49.00
2023-05-25T16:52:18.349Z,49.10
2023-05-25T16:54:45.232Z,49.40
2023-05-25T16:57:12.190Z,49.40
2023-05-25T16:59:39.431Z,49.50
2023-05-25T17:02:06.644Z,49.50
2023-05-25T17:04:33.518Z,49.40
2023-05-25T17:07:00.371Z,49.50
2023-05-25T17:09:27.165Z,49.60
2023-05-25T17:11:54.173Z,49.60
2023-05-25T17:14:21.632Z,49.80
2023-05-25T17:16:48.549Z,49.70
2023-05-25T17:19:15.771Z,49.90
2023-05-25T17:21:43.031Z,49.80
2023-05-25T17:24:10.346Z,49.90
2023-05-25T17:26:37.125Z,49.90
2023-05-25T17:29:06.113Z,49.90
2023-05-25T17:31:33.219Z,49.80
2023-05-25T17:34:00.951Z,50.20
2023-05-25T17:36:30.898Z,50.30
2023-05-25T17:38:57.862Z,50.50
2023-05-25T17:41:24.679Z,50.50
2023-05-25T17:43:51.439Z,50.60
2023-05-25T17:46:18.428Z,50.30
2023-05-25T17:48:45.805Z,50.30
2023-05-25T17:51:12.555Z,50.20
2023-05-25T17:53:39.376Z,50.10
2023-05-25T17:56:06.720Z,50.30
2023-05-25T17:58:33.508Z,50.30
2023-05-25T18:01:00.549Z,50.30
2023-05-25T18:03:27.521Z,50.40
2023-05-25T18:05:54.397Z,50.70
2023-05-25T18:08:21.450Z,50.80
2023-05-25T18:10:50.288Z,50.80
2023-05-25T18:13:17.109Z,50.70
2023-05-25T18:15:44.307Z,50.70
2023-05-25T18:18:11.376Z,50.80
2023-05-25T18:20:38.255Z,50.70
2023-05-25T18:23:08.188Z,50.90
2023-05-25T18:25:35.194Z,51.00
2023-05-25T18:28:02.031Z,51.00
2023-05-25T18:30:28.860Z,51.70
2023-05-25T18:32:55.814Z,51.20
2023-05-25T18:35:22.719Z,51.10
2023-05-25T18:37:49.522Z,51.20
2023-05-25T18:40:16.499Z,51.50
2023-05-25T18:42:43.357Z,51.40
2023-05-25T18:45:10.498Z,51.40
2023-05-25T18:47:37.405Z,51.50
2023-05-25T18:50:04.489Z,51.60
2023-05-25T18:52:31.235Z,51.70
2023-05-25T18:55:00.389Z,51.90
2023-05-25T18:57:29.822Z,52.00
2023-05-25T18:59:56.682Z,52.10
2023-05-25T19:02:23.543Z,52.20
2023-05-25T19:04:50.432Z,52.10
2023-05-25T19:07:17.244Z,52.40
2023-05-25T19:09:44.138Z,52.60
2023-05-25T19:12:10.979Z,52.70
2023-05-25T19:14:37.760Z,52.90
2023-05-25T19:17:04.623Z,52.90
2023-05-25T19:19:31.406Z,53.10
2023-05-25T19:21:58.226Z,53.20
2023-05-25T19:24:26.144Z,53.30
2023-05-25T19:26:52.981Z,53.50
2023-05-25T19:29:19.744Z,53.60
2023-05-25T19:31:46.595Z,53.80
2023-05-25T19:34:13.418Z,53.80
2023-05-25T19:36:40.209Z,53.90
2023-05-25T19:39:07.016Z,54.00
2023-05-25T19:41:33.957Z,54.10
2023-05-25T19:44:01.954Z,54.10
2023-05-25T19:46:29.255Z,54.40
2023-05-25T19:48:57.792Z,54.50
2023-05-25T19:51:24.666Z,54.80
2023-05-25T19:53:55.425Z,54.90
2023-05-25T19:56:22.685Z,55.00
2023-05-25T19:58:49.905Z,55.00
2023-05-25T20:01:16.770Z,55.10
2023-05-25T20:03:46.497Z,55.20
2023-05-25T20:06:13.468Z,55.20
2023-05-25T20:08:40.276Z,55.30
2023-05-25T20:11:07.037Z,55.40
2023-05-25T20:13:36.362Z,55.50
2023-05-25T20:16:03.200Z,55.60
2023-05-25T20:18:30.025Z,55.70
2023-05-25T20:20:59.467Z,55.80
2023-05-25T20:23:26.251Z,55.90
2023-05-25T20:25:53.224Z,56.00
2023-05-25T20:28:20.002Z,56.10
2023-05-25T20:30:46.803Z,56.20
2023-05-25T20:33:13.698Z,56.20
2023-05-25T20:35:40.545Z,56.30
2023-05-25T20:38:07.380Z,56.40
2023-05-25T20:40:34.176Z,56.40
2023-05-25T20:43:00.984Z,56.50
2023-05-25T20:45:30.528Z,56.60
2023-05-25T20:48:04.255Z,56.60
2023-05-25T20:50:34.198Z,56.70
2023-05-25T20:53:01.023Z,56.80
2023-05-25T20:55:28.664Z,56.70
2023-05-25T20:57:56.711Z,56.70
2023-05-25T21:00:23.815Z,56.80
2023-05-25T21:02:50.896Z,56.90
2023-05-25T21:05:17.782Z,57.00
2023-05-25T21:07:44.609Z,57.00
2023-05-25T21:10:11.489Z,57.00
2023-05-25T21:12:38.286Z,57.10
2023-05-25T21:15:05.520Z,57.30
2023-05-25T21:17:32.394Z,57.10
2023-05-25T21:19:59.243Z,57.10
2023-05-25T21:22:26.050Z,57.40
2023-05-25T21:24:52.858Z,57.10
2023-05-25T21:27:19.674Z,57.20
2023-05-25T21:29:46.385Z,57.40
2023-05-25T21:32:13.150Z,57.60
2023-05-25T21:34:40.030Z,57.60
2023-05-25T21:37:06.775Z,57.70
2023-05-25T21:39:33.822Z,57.80
2023-05-25T21:42:01.894Z,57.70
2023-05-25T21:44:28.749Z,57.60
2023-05-25T21:46:55.562Z,57.70
2023-05-25T21:49:22.406Z,58.10
2023-05-25T21:51:49.178Z,58.00
2023-05-25T21:54:16.040Z,57.80
2023-05-25T21:56:42.954Z,57.90
2023-05-25T21:59:09.732Z,58.00
2023-05-25T22:01:36.542Z,58.00
2023-05-25T22:04:03.362Z,58.30
2023-05-25T22:06:30.156Z,58.10
2023-05-25T22:08:56.977Z,58.50
2023-05-25T22:11:24.583Z,58.60
2023-05-25T22:13:51.453Z,58.50
2023-05-25T22:16:18.290Z,58.50
2023-05-25T22:18:45.143Z,58.60
2023-05-25T22:21:12.063Z,58.80
2023-05-25T22:23:39.011Z,58.90
2023-05-25T22:26:06.167Z,59.00
2023-05-25T22:28:33.023Z,59.00
2023-05-25T22:31:00.102Z,59.00
2023-05-25T22:33:26.977Z,59.10
2023-05-25T22:35:53.753Z,59.20
2023-05-25T22:38:20.598Z,59.30
2023-05-25T22:40:47.758Z,59.20
2023-05-25T22:43:14.902Z,59.10
2023-05-25T22:45:41.799Z,59.10
2023-05-25T22:48:08.763Z,59.20
2023-05-25T22:50:35.580Z,59.10
2023-05-25T22:53:02.475Z,59.20
2023-05-25T22:55:29.316Z,59.20
2023-05-25T22:57:56.212Z,59.20
2023-05-25T23:00:23.370Z,59.20
2023-05-25T23:02:50.232Z,59.30
2023-05-25T23:05:17.035Z,59.40
2023-05-25T23:07:45.167Z,59.40
2023-05-25T23:10:12.065Z,60.00
2023-05-25T23:12:39.011Z,59.40
2023-05-25T23:15:08.093Z,59.30
2023-05-25T23:17:35.210Z,60.00
2023-05-25T23:20:02.178Z,59.30
2023-05-25T23:22:29.011Z,59.40
2023-05-25T23:24:55.952Z,59.50
2023-05-25T23:27:22.700Z,59.50
2023-05-25T23:29:49.455Z,59.60
2023-05-25T23:32:16.292Z,59.60
2023-05-25T23:34:43.092Z,59.50
2023-05-25T23:37:09.868Z,59.40
2023-05-25T23:39:36.701Z,59.40
2023-05-25T23:42:03.602Z,59.40
2023-05-25T23:44:30.885Z,59.40
2023-05-25T23:46:57.702Z,59.60
2023-05-25T23:49:24.492Z,59.70
2023-05-25T23:51:51.254Z,59.80
2023-05-25T23:54:18.083Z,59.80
2023-05-25T23:56:44.855Z,59.90
2023-05-25T23:59:14.601Z,59.70
